Country
Station

 

Weather  for  Northolt  -  United Kingdom    United Kingdom

  
10 °C (50 °F)
    
 
 

Current METAR for Northolt is :

EGWU 192250Z AUTO 24007KT 9999 // FEW024/// SCT070/// 10/08 Q1030

 

This is a report for Northolt - United Kingdom.
 
The report was made one hour and 5 minutes ago, at 22:50 UTC .
The wind was blowing at a speed of 3.6 meters per second (8.1 miles per hour) from west/southwest (240°).
 
The temperature was 10 °C (50 °F), with a dew-point at 8 °C (46 °F).
The atmospheric pressure was 1030 hPa (30.42 inHg).
The relative humidity was 87.4%.
 
The overall visibility was greater than 10 kilometers (6.2 miles).
 

 
 
 
 

Country :   A   B   C   D   E   F   G   H   I   J   K   L   M   N   O   P   Q   R   S   T   U   V   W   Y   Z

 

Site Info  |  Disclaimer  |  Credits  |  Privacy
Contact us  |  Add to favorites
© 2013-2019 METARs - All rights reserved